Time;durP1;ratioP1;P1;durP2;ratioP2;P2;SDS_P1;SDS_P2;PMS_P1;PMS_P2;Temp;Humidity;BMP_temperature;BMP_pressure;BME280_temperature;BME280_humidity;BME280_pressure;Samples;Min_cycle;Max_cycle;Signal;HPM_P1;HPM_P2
2022/04/12 00:23:50;;;;;;;30.00;16.60;;;;;;;;;;4271928;28;20145;-66
2022/04/12 00:26:16;;;;;;;33.00;19.15;;;;;;;;;;4176154;34;20558;-67
2022/04/12 00:28:45;;;;;;;27.37;18.92;;;;;;;;;;4170096;34;20111;-67
2022/04/12 00:31:15;;;;;;;33.40;17.83;;;;;;;;;;4161767;34;20122;-69
2022/04/12 00:34:15;;;;;;;;;;;;;;;;;;;;;
2022/04/12 00:37:08;;;;;;;28.95;18.02;;;;;;;;;;4163152;34;20546;-67
2022/04/12 00:40:25;;;;;;;32.92;18.00;;;;;;;;;;4150835;34;20582;-68
2022/04/12 00:43:26;;;;;;;29.45;17.55;;;;;;;;;;4149119;34;20126;-68
2022/04/12 00:45:53;;;;;;;32.75;17.87;;;;;;;;;;4150672;34;20118;-67
2022/04/12 00:48:23;;;;;;;36.00;18.25;;;;;;;;;;4162307;34;20114;-67
2022/04/12 00:50:50;;;;;;;34.63;17.70;;;;;;;;;;4150132;34;20625;-68
2022/04/12 00:53:18;;;;;;;39.80;17.02;;;;;;;;;;4139132;34;20563;-68
2022/04/12 00:55:44;;;;;;;32.17;15.45;;;;;;;;;;4150215;34;20539;-67
2022/04/12 00:58:10;;;;;;;39.90;16.12;;;;;;;;;;4139023;34;20146;-69
2022/04/12 01:00:39;;;;;;;34.90;14.80;;;;;;;;;;4150625;34;20126;-69
2022/04/12 01:03:05;;;;;;;37.70;15.02;;;;;;;;;;4163064;34;20517;-69
2022/04/12 01:05:32;;;;;;;30.92;14.85;;;;;;;;;;4150252;34;20118;-69
2022/04/12 01:07:58;;;;;;;30.45;15.55;;;;;;;;;;4149795;34;20142;-69
2022/04/12 01:10:24;;;;;;;27.42;15.23;;;;;;;;;;4162816;34;20106;-68
2022/04/12 01:12:54;;;;;;;31.75;15.30;;;;;;;;;;4162812;34;20111;-68
2022/04/12 01:15:23;;;;;;;34.92;18.08;;;;;;;;;;4150152;34;20150;-68
2022/04/12 01:17:50;;;;;;;43.08;16.00;;;;;;;;;;4150040;34;20131;-68
2022/04/12 01:20:23;;;;;;;31.17;15.73;;;;;;;;;;4149974;34;20225;-68
2022/04/12 01:22:59;;;;;;;39.03;15.90;;;;;;;;;;4140055;34;20527;-68
2022/04/12 01:25:25;;;;;;;27.37;14.75;;;;;;;;;;4152275;34;20135;-67
2022/04/12 01:27:52;;;;;;;30.83;15.95;;;;;;;;;;4141130;34;20533;-68
2022/04/12 01:30:18;;;;;;;41.95;14.85;;;;;;;;;;4152085;34;20215;-68
2022/04/12 01:32:47;;;;;;;27.05;14.07;;;;;;;;;;4141417;34;20114;-68
2022/04/12 01:35:13;;;;;;;28.12;15.63;;;;;;;;;;4140958;34;20484;-68
2022/04/12 01:37:39;;;;;;;31.45;13.02;;;;;;;;;;4164857;34;20192;-68
2022/04/12 01:40:13;;;;;;;23.05;13.70;;;;;;;;;;4164600;34;20220;-68
2022/04/12 01:42:39;;;;;;;25.30;13.20;;;;;;;;;;4151986;34;20127;-69
2022/04/12 01:45:06;;;;;;;24.50;14.77;;;;;;;;;;4140740;34;20293;-68
2022/04/12 01:47:32;;;;;;;28.38;12.85;;;;;;;;;;4152122;34;20095;-69
2022/04/12 01:49:58;;;;;;;25.52;12.85;;;;;;;;;;4152135;34;20095;-69
2022/04/12 01:52:25;;;;;;;33.08;13.45;;;;;;;;;;4164484;34;20115;-69
2022/04/12 01:54:50;;;;;;;22.02;11.02;;;;;;;;;;4164871;34;20122;-69
2022/04/12 01:57:17;;;;;;;23.33;11.23;;;;;;;;;;4151853;34;20099;-69
2022/04/12 01:59:45;;;;;;;25.80;12.70;;;;;;;;;;4164455;34;20200;-70
2022/04/12 02:02:13;;;;;;;25.08;13.10;;;;;;;;;;4151603;34;20556;-70
2022/04/12 02:04:42;;;;;;;33.03;14.95;;;;;;;;;;4164714;34;20090;-70
2022/04/12 02:07:12;;;;;;;41.88;13.20;;;;;;;;;;4151922;34;20230;-69
2022/04/12 02:09:38;;;;;;;31.20;15.07;;;;;;;;;;4151667;34;20086;-70
2022/04/12 02:12:35;;;;;;;39.17;18.40;;;;;;;;;;4153712;34;20139;-70
2022/04/12 02:15:22;;;;;;;40.20;22.67;;;;;;;;;;4141277;34;20210;-68
2022/04/12 02:17:53;;;;;;;66.12;21.42;;;;;;;;;;4164322;34;20081;-68
2022/04/12 02:20:21;;;;;;;55.38;22.80;;;;;;;;;;4151562;34;20130;-66
2022/04/12 02:22:53;;;;;;;59.88;24.67;;;;;;;;;;4151953;34;20125;-68
2022/04/12 02:25:31;;;;;;;54.25;24.02;;;;;;;;;;4151355;34;20108;-67
2022/04/12 02:28:04;;;;;;;60.90;23.55;;;;;;;;;;4152239;34;20098;-67
2022/04/12 02:30:30;;;;;;;53.78;22.27;;;;;;;;;;4140415;34;20131;-68
2022/04/12 02:32:56;;;;;;;57.35;19.87;;;;;;;;;;4140353;34;20115;-66
2022/04/12 02:35:46;;;;;;;37.03;14.87;;;;;;;;;;4150835;34;20110;-68
2022/04/12 02:38:35;;;;;;;42.83;15.43;;;;;;;;;;4151932;34;20194;-67
2022/04/12 02:41:01;;;;;;;36.00;11.35;;;;;;;;;;4164368;34;20199;-65
2022/04/12 02:43:27;;;;;;;21.45;9.85;;;;;;;;;;4151220;34;20114;-65
2022/04/12 02:45:58;;;;;;;22.13;8.95;;;;;;;;;;4151900;34;20103;-66
2022/04/12 02:48:25;;;;;;;21.25;7.70;;;;;;;;;;4151149;34;20523;-68
2022/04/12 02:51:08;;;;;;;22.98;8.88;;;;;;;;;;4151190;34;20134;-67
2022/04/12 02:53:39;;;;;;;33.78;9.82;;;;;;;;;;4152037;34;20102;-66
2022/04/12 02:56:07;;;;;;;48.15;11.15;;;;;;;;;;4128924;34;20197;-67
2022/04/12 02:58:34;;;;;;;38.22;10.75;;;;;;;;;;4151014;34;20130;-68
2022/04/12 03:01:05;;;;;;;33.80;9.57;;;;;;;;;;4151703;34;20131;-68
2022/04/12 03:03:49;;;;;;;37.08;10.23;;;;;;;;;;4163835;34;20118;-68
2022/04/12 03:06:23;;;;;;;24.87;11.93;;;;;;;;;;4151045;34;20551;-70
2022/04/12 03:08:54;;;;;;;36.65;14.65;;;;;;;;;;4149670;34;20107;-67
2022/04/12 03:11:20;;;;;;;36.65;14.30;;;;;;;;;;4160903;34;20102;-71
2022/04/12 03:13:46;;;;;;;30.67;13.73;;;;;;;;;;4139708;34;20114;-71
2022/04/12 03:16:18;;;;;;;29.80;12.77;;;;;;;;;;4164113;34;20139;-76
2022/04/12 03:18:44;;;;;;;29.08;11.77;;;;;;;;;;4163647;34;20527;-73
2022/04/12 03:21:16;;;;;;;32.50;10.93;;;;;;;;;;4138272;34;20125;-74
2022/04/12 03:23:42;;;;;;;30.77;10.57;;;;;;;;;;4149190;34;20153;-69
2022/04/12 03:26:08;;;;;;;34.88;11.38;;;;;;;;;;4151180;34;20194;-70
2022/04/12 03:28:34;;;;;;;20.02;10.10;;;;;;;;;;4158563;34;20119;-69
2022/04/12 03:31:00;;;;;;;29.77;11.70;;;;;;;;;;4151109;34;20134;-69
2022/04/12 03:33:26;;;;;;;24.15;8.60;;;;;;;;;;4128492;34;20576;-70
2022/04/12 03:35:52;;;;;;;34.97;9.02;;;;;;;;;;4150912;34;20110;-69
2022/04/12 03:38:18;;;;;;;26.35;9.23;;;;;;;;;;4151003;34;20144;-69
2022/04/12 03:40:46;;;;;;;42.88;9.10;;;;;;;;;;4163579;34;20116;-70
2022/04/12 03:43:12;;;;;;;24.63;7.90;;;;;;;;;;4139664;34;20212;-69
2022/04/12 03:45:39;;;;;;;14.63;9.20;;;;;;;;;;4163496;34;20215;-71
2022/04/12 03:48:08;;;;;;;18.92;7.93;;;;;;;;;;4128959;34;20118;-73
2022/04/12 03:50:37;;;;;;;15.90;8.07;;;;;;;;;;4163596;34;20090;-67
2022/04/12 03:53:03;;;;;;;22.02;7.80;;;;;;;;;;4139998;34;20523;-69
2022/04/12 03:55:31;;;;;;;19.83;8.48;;;;;;;;;;4151221;34;20218;-69
2022/04/12 03:58:03;;;;;;;24.27;8.35;;;;;;;;;;4163895;34;20123;-68
2022/04/12 04:00:29;;;;;;;30.10;9.23;;;;;;;;;;4163644;34;20106;-71
2022/04/12 04:02:55;;;;;;;22.75;9.07;;;;;;;;;;4151273;34;20138;-73
2022/04/12 04:05:22;;;;;;;34.33;9.23;;;;;;;;;;4151040;34;20138;-73
2022/04/12 04:07:48;;;;;;;28.77;9.25;;;;;;;;;;4151312;34;20130;-67
2022/04/12 04:10:14;;;;;;;35.20;10.02;;;;;;;;;;4163598;34;20145;-69
2022/04/12 04:12:40;;;;;;;26.42;8.98;;;;;;;;;;4163236;34;20107;-66
2022/04/12 04:15:11;;;;;;;36.78;11.02;;;;;;;;;;4128828;34;20122;-70
2022/04/12 04:17:47;;;;;;;35.22;8.73;;;;;;;;;;4150495;34;20201;-68
2022/04/12 04:20:18;;;;;;;23.58;8.75;;;;;;;;;;4163263;34;20125;-68
2022/04/12 04:22:44;;;;;;;32.53;11.30;;;;;;;;;;4150575;34;20122;-66
2022/04/12 04:25:13;;;;;;;24.33;9.57;;;;;;;;;;4139608;34;20111;-69
2022/04/12 04:27:41;;;;;;;18.92;10.85;;;;;;;;;;4163341;34;20110;-68
2022/04/12 04:30:08;;;;;;;34.22;16.35;;;;;;;;;;4150944;34;20190;-76
2022/04/12 04:32:38;;;;;;;39.70;16.83;;;;;;;;;;4162899;34;20535;-82
2022/04/12 04:35:06;;;;;;;35.72;17.70;;;;;;;;;;4150994;34;20154;-81
2022/04/12 04:37:32;;;;;;;34.25;15.05;;;;;;;;;;4150514;34;20111;-75
2022/04/12 04:39:58;;;;;;;25.00;15.35;;;;;;;;;;4150587;34;20118;-73
2022/04/12 04:42:27;;;;;;;23.67;9.30;;;;;;;;;;4150283;34;20563;-73
2022/04/12 04:44:53;;;;;;;30.40;9.88;;;;;;;;;;4163047;34;20095;-77
2022/04/12 04:47:19;;;;;;;32.10;13.77;;;;;;;;;;4159109;34;20107;-78
2022/04/12 04:49:44;;;;;;;24.58;9.18;;;;;;;;;;4162623;34;20102;-79
2022/04/12 04:52:10;;;;;;;23.35;10.65;;;;;;;;;;4135975;34;20639;-78
2022/04/12 04:54:36;;;;;;;25.12;8.43;;;;;;;;;;4150059;34;20111;-76
2022/04/12 04:57:03;;;;;;;25.83;10.98;;;;;;;;;;4150242;34;20529;-69
2022/04/12 04:59:29;;;;;;;24.65;11.40;;;;;;;;;;4165166;34;20099;-70
2022/04/12 05:01:54;;;;;;;26.98;8.82;;;;;;;;;;4151916;34;20125;-70
2022/04/12 05:04:20;;;;;;;28.40;8.60;;;;;;;;;;4165001;34;20110;-70
2022/04/12 05:06:46;;;;;;;15.57;7.22;;;;;;;;;;4140929;34;20150;-72
2022/04/12 05:09:12;;;;;;;18.00;8.38;;;;;;;;;;4164846;34;20287;-69
2022/04/12 05:11:38;;;;;;;18.77;8.20;;;;;;;;;;4160549;34;20187;-72
2022/04/12 05:14:05;;;;;;;45.10;8.65;;;;;;;;;;4138630;34;20137;-72
2022/04/12 05:16:31;;;;;;;23.90;8.10;;;;;;;;;;4138538;34;20219;-71
2022/04/12 05:18:57;;;;;;;26.58;7.78;;;;;;;;;;4127804;34;20131;-72
2022/04/12 05:21:23;;;;;;;27.30;8.27;;;;;;;;;;4138784;34;20106;-72
2022/04/12 05:23:49;;;;;;;48.47;9.13;;;;;;;;;;4149990;34;20126;-72
2022/04/12 05:26:15;;;;;;;26.00;8.55;;;;;;;;;;4138631;34;20100;-72
2022/04/12 05:28:41;;;;;;;22.30;8.10;;;;;;;;;;4127530;34;20520;-71
2022/04/12 05:31:06;;;;;;;30.98;8.60;;;;;;;;;;4151052;34;20095;-71
2022/04/12 05:33:32;;;;;;;37.85;10.57;;;;;;;;;;4151107;34;20202;-71
2022/04/12 05:35:58;;;;;;;13.95;7.75;;;;;;;;;;4138789;34;20103;-71
2022/04/12 05:38:24;;;;;;;19.40;8.68;;;;;;;;;;4151197;34;20150;-68
2022/04/12 05:40:50;;;;;;;15.38;7.37;;;;;;;;;;4150932;34;20539;-72
2022/04/12 05:43:16;;;;;;;11.55;7.87;;;;;;;;;;4151001;34;20206;-72
2022/04/12 05:45:42;;;;;;;16.10;7.10;;;;;;;;;;4127573;34;20134;-69
2022/04/12 05:48:08;;;;;;;36.50;7.30;;;;;;;;;;4151396;34;20118;-69
2022/04/12 05:50:34;;;;;;;29.65;6.55;;;;;;;;;;4151220;34;20115;-69
2022/04/12 05:53:00;;;;;;;12.73;6.30;;;;;;;;;;4151028;34;20186;-69
2022/04/12 05:55:26;;;;;;;12.65;6.00;;;;;;;;;;4136875;34;20142;-69
2022/04/12 05:57:55;;;;;;;16.98;5.95;;;;;;;;;;4150846;34;20535;-65
2022/04/12 06:00:22;;;;;;;12.35;6.30;;;;;;;;;;4150121;34;20107;-68
2022/04/12 06:02:49;;;;;;;10.65;6.93;;;;;;;;;;4149699;34;20139;-69
2022/04/12 06:05:16;;;;;;;21.27;6.30;;;;;;;;;;4151057;34;20524;-69
2022/04/12 06:07:42;;;;;;;23.15;7.37;;;;;;;;;;4149413;34;20126;-69
2022/04/12 06:10:09;;;;;;;15.77;6.85;;;;;;;;;;4150880;34;20087;-67
2022/04/12 06:12:35;;;;;;;15.75;6.15;;;;;;;;;;4161721;34;20122;-67
2022/04/12 06:15:02;;;;;;;20.23;7.87;;;;;;;;;;4164491;34;20528;-67
2022/04/12 06:17:33;;;;;;;14.35;6.97;;;;;;;;;;4151637;34;20110;-65
2022/04/12 06:20:02;;;;;;;24.77;7.40;;;;;;;;;;4164320;34;20123;-67
2022/04/12 06:22:28;;;;;;;16.95;6.60;;;;;;;;;;4164275;34;20109;-66
2022/04/12 06:24:53;;;;;;;16.23;6.20;;;;;;;;;;4151860;34;20125;-68
2022/04/12 06:27:29;;;;;;;21.02;7.70;;;;;;;;;;4151931;34;20119;-68
2022/04/12 06:29:54;;;;;;;11.43;6.25;;;;;;;;;;4164566;34;20553;-66
2022/04/12 06:32:20;;;;;;;11.65;7.25;;;;;;;;;;4151875;34;20123;-67
2022/04/12 06:34:46;;;;;;;18.55;8.15;;;;;;;;;;4164437;34;20135;-67
2022/04/12 06:37:12;;;;;;;13.13;5.97;;;;;;;;;;4140248;34;20236;-70
2022/04/12 06:39:38;;;;;;;17.95;8.20;;;;;;;;;;4162751;34;20127;-67
2022/04/12 06:42:05;;;;;;;20.05;8.02;;;;;;;;;;4151362;34;20221;-70
2022/04/12 06:44:32;;;;;;;25.20;7.55;;;;;;;;;;4164245;34;20118;-67
2022/04/12 06:46:58;;;;;;;16.87;6.90;;;;;;;;;;4163873;34;20218;-67
2022/04/12 06:49:24;;;;;;;15.57;8.38;;;;;;;;;;4164005;34;20106;-68
2022/04/12 06:51:50;;;;;;;12.27;7.10;;;;;;;;;;4163991;34;20095;-69
2022/04/12 06:54:16;;;;;;;14.27;8.75;;;;;;;;;;4164432;34;20202;-69
2022/04/12 06:56:42;;;;;;;29.50;10.20;;;;;;;;;;4162510;34;20153;-70
2022/04/12 06:59:09;;;;;;;15.75;9.68;;;;;;;;;;4164278;34;20097;-68
2022/04/12 07:01:34;;;;;;;19.27;9.77;;;;;;;;;;4151155;34;20174;-66
2022/04/12 07:04:00;;;;;;;8.77;5.00;;;;;;;;;;4162980;34;20120;-67
2022/04/12 07:06:26;;;;;;;22.87;5.80;;;;;;;;;;4163918;34;20119;-68
2022/04/12 07:08:52;;;;;;;14.87;5.50;;;;;;;;;;4163841;34;20659;-68
2022/04/12 07:11:18;;;;;;;8.80;4.40;;;;;;;;;;4163783;34;20656;-69
2022/04/12 07:13:44;;;;;;;12.73;5.93;;;;;;;;;;4164213;34;20544;-70
2022/04/12 07:16:10;;;;;;;12.27;5.07;;;;;;;;;;4162469;34;20098;-69
2022/04/12 07:18:37;;;;;;;6.65;4.12;;;;;;;;;;4163781;34;20583;-70
2022/04/12 07:21:03;;;;;;;9.13;3.87;;;;;;;;;;4161587;34;20206;-68
2022/04/12 07:23:29;;;;;;;8.75;4.28;;;;;;;;;;4151145;34;20126;-71
2022/04/12 07:25:55;;;;;;;13.32;4.37;;;;;;;;;;4151106;34;20673;-69
2022/04/12 07:28:21;;;;;;;7.90;3.30;;;;;;;;;;4163837;34;20142;-70
2022/04/12 07:30:47;;;;;;;17.20;4.50;;;;;;;;;;4162359;34;20186;-72
2022/04/12 07:33:16;;;;;;;11.65;4.10;;;;;;;;;;4163705;34;20109;-70
2022/04/12 07:35:42;;;;;;;20.37;8.30;;;;;;;;;;4139750;34;20207;-67
2022/04/12 07:38:09;;;;;;;28.77;14.70;;;;;;;;;;4162623;34;20214;-70
2022/04/12 07:40:35;;;;;;;38.47;19.58;;;;;;;;;;4150991;34;20537;-68
2022/04/12 07:43:01;;;;;;;35.22;19.10;;;;;;;;;;4151050;34;20114;-69
2022/04/12 07:45:27;;;;;;;47.72;21.27;;;;;;;;;;4163739;34;20102;-71
2022/04/12 07:47:53;;;;;;;36.15;17.98;;;;;;;;;;4150858;34;20145;-70
2022/04/12 07:50:19;;;;;;;47.05;21.23;;;;;;;;;;4163912;34;20137;-69
2022/04/12 07:52:46;;;;;;;28.85;18.27;;;;;;;;;;4151119;34;20130;-67
2022/04/12 07:55:12;;;;;;;34.70;17.37;;;;;;;;;;4161841;34;20115;-65
2022/04/12 07:57:38;;;;;;;43.67;18.00;;;;;;;;;;4163680;34;20114;-70
2022/04/12 08:00:05;;;;;;;35.92;18.10;;;;;;;;;;4150806;34;20099;-67
2022/04/12 08:02:31;;;;;;;24.90;9.95;;;;;;;;;;4163451;34;20565;-68
2022/04/12 08:04:57;;;;;;;16.50;8.55;;;;;;;;;;4163531;34;20185;-67
2022/04/12 08:07:23;;;;;;;3.58;2.83;;;;;;;;;;4163372;34;20110;-67
2022/04/12 08:09:49;;;;;;;5.20;4.05;;;;;;;;;;4163472;34;20602;-65
2022/04/12 08:12:15;;;;;;;14.52;6.03;;;;;;;;;;4163457;34;20183;-65
2022/04/12 08:14:41;;;;;;;11.88;4.55;;;;;;;;;;4163652;34;20611;-63
2022/04/12 08:17:07;;;;;;;9.68;5.22;;;;;;;;;;4162483;34;20625;-65
2022/04/12 08:19:33;;;;;;;15.57;6.37;;;;;;;;;;4162445;34;20103;-65
2022/04/12 08:22:01;;;;;;;6.28;4.37;;;;;;;;;;4163226;34;20218;-64
2022/04/12 08:24:27;;;;;;;8.85;3.60;;;;;;;;;;4163433;34;20130;-64
2022/04/12 08:26:53;;;;;;;14.95;5.12;;;;;;;;;;4163568;34;20105;-64
2022/04/12 08:29:18;;;;;;;2.28;1.98;;;;;;;;;;4150649;34;20149;-64
2022/04/12 08:31:44;;;;;;;3.47;2.92;;;;;;;;;;4162643;34;20446;-66
2022/04/12 08:34:10;;;;;;;15.05;4.90;;;;;;;;;;4162979;34;20522;-67
2022/04/12 08:36:36;;;;;;;2.15;1.40;;;;;;;;;;4163205;34;20118;-64
2022/04/12 08:39:03;;;;;;;2.42;2.22;;;;;;;;;;4163205;34;20205;-67
2022/04/12 08:41:30;;;;;;;5.55;4.93;;;;;;;;;;4163029;34;20467;-67
2022/04/12 08:43:58;;;;;;;8.98;5.05;;;;;;;;;;4163346;34;20227;-68
2022/04/12 08:46:28;;;;;;;6.15;4.18;;;;;;;;;;4163014;34;20110;-67
2022/04/12 08:48:55;;;;;;;2.30;1.92;;;;;;;;;;4150695;34;20596;-67
2022/04/12 08:51:22;;;;;;;10.70;3.53;;;;;;;;;;4162983;34;20229;-67
2022/04/12 08:53:48;;;;;;;17.05;5.47;;;;;;;;;;4163181;34;20206;-66
2022/04/12 08:56:15;;;;;;;2.25;1.77;;;;;;;;;;4162972;34;20507;-66
2022/04/12 08:58:41;;;;;;;6.35;4.87;;;;;;;;;;4161563;34;20142;-67
2022/04/12 09:01:07;;;;;;;9.38;6.20;;;;;;;;;;4150449;34;20521;-67
2022/04/12 09:03:33;;;;;;;3.12;2.75;;;;;;;;;;4163292;34;20099;-67
2022/04/12 09:05:59;;;;;;;11.35;6.80;;;;;;;;;;4163063;34;20112;-66
2022/04/12 09:08:32;;;;;;;20.02;6.37;;;;;;;;;;4162789;34;20118;-67
2022/04/12 09:11:04;;;;;;;9.43;4.47;;;;;;;;;;4162811;34;20549;-67
2022/04/12 09:13:30;;;;;;;14.40;6.75;;;;;;;;;;4162945;34;20129;-66
2022/04/12 09:15:56;;;;;;;9.93;7.18;;;;;;;;;;4162824;34;20125;-67
2022/04/12 09:18:38;;;;;;;9.75;7.10;;;;;;;;;;4150128;34;20131;-67
2022/04/12 09:21:09;;;;;;;7.65;5.53;;;;;;;;;;4162834;34;20126;-68
2022/04/12 09:23:35;;;;;;;1.48;1.35;;;;;;;;;;4162588;34;20134;-68
2022/04/12 09:26:01;;;;;;;1.95;1.85;;;;;;;;;;4162565;34;20114;-67
2022/04/12 09:28:39;;;;;;;7.97;5.87;;;;;;;;;;4162852;34;20130;-68
2022/04/12 09:31:16;;;;;;;2.42;1.90;;;;;;;;;;4150128;34;20614;-68
2022/04/12 09:33:44;;;;;;;6.87;3.75;;;;;;;;;;4162478;34;20207;-68
2022/04/12 09:36:10;;;;;;;14.18;5.40;;;;;;;;;;4162672;34;20130;-67
2022/04/12 09:38:39;;;;;;;1.75;1.50;;;;;;;;;;4138627;34;20106;-69
2022/04/12 09:41:22;;;;;;;1.73;1.62;;;;;;;;;;4162492;34;20218;-67
2022/04/12 09:44:07;;;;;;;13.23;5.65;;;;;;;;;;4163442;34;20599;-66
2022/04/12 09:46:34;;;;;;;12.98;4.53;;;;;;;;;;4164194;34;20130;-66
2022/04/12 09:49:00;;;;;;;15.38;5.78;;;;;;;;;;4164517;34;20530;-65
2022/04/12 09:51:26;;;;;;;14.35;6.35;;;;;;;;;;4151882;34;20115;-64
2022/04/12 09:53:53;;;;;;;9.80;6.40;;;;;;;;;;4164816;34;20115;-64
2022/04/12 09:56:28;;;;;;;17.00;9.02;;;;;;;;;;4164710;34;20111;-66
2022/04/12 09:58:54;;;;;;;;;;;;;;;;;;4164538;34;20511;-64
2022/04/12 10:01:21;;;;;;;10.68;6.57;;;;;;;;;;4164628;34;19963;-64
2022/04/12 10:03:57;;;;;;;10.43;6.18;;;;;;;;;;4164471;34;20519;-64
2022/04/12 10:06:25;;;;;;;8.80;6.18;;;;;;;;;;4164437;34;20102;-67
2022/04/12 10:09:02;;;;;;;8.18;6.53;;;;;;;;;;4129345;34;20534;-65
2022/04/12 10:11:28;;;;;;;2.80;1.77;;;;;;;;;;4164562;34;20130;-63
2022/04/12 10:13:55;;;;;;;3.10;2.22;;;;;;;;;;4164661;34;20244;-65
2022/04/12 10:16:23;;;;;;;6.78;4.12;;;;;;;;;;4163055;34;20165;-63
2022/04/12 10:18:50;;;;;;;6.97;5.00;;;;;;;;;;4164531;34;20117;-65
2022/04/12 10:21:16;;;;;;;17.85;7.60;;;;;;;;;;4164278;34;20150;-63
2022/04/12 10:23:44;;;;;;;8.77;5.47;;;;;;;;;;4164209;34;20452;-63
2022/04/12 10:26:11;;;;;;;14.23;6.03;;;;;;;;;;4150288;34;20223;-61
2022/04/12 10:28:37;;;;;;;7.93;4.57;;;;;;;;;;4160210;34;20165;-63
2022/04/12 10:31:12;;;;;;;7.65;5.07;;;;;;;;;;4147351;34;20118;-64
2022/04/12 10:33:38;;;;;;;3.15;2.40;;;;;;;;;;4160049;34;20130;-66
2022/04/12 10:36:06;;;;;;;9.68;6.35;;;;;;;;;;4162682;34;20243;-64
2022/04/12 10:38:40;;;;;;;7.62;5.62;;;;;;;;;;4150981;34;20123;-65
2022/04/12 10:41:23;;;;;;;7.32;3.50;;;;;;;;;;4164105;34;20126;-64
2022/04/12 10:43:54;;;;;;;7.82;4.65;;;;;;;;;;4151620;34;20126;-65
2022/04/12 10:46:20;;;;;;;9.23;5.07;;;;;;;;;;4164222;34;20123;-65
2022/04/12 10:48:54;;;;;;;11.43;5.37;;;;;;;;;;4164021;34;20126;-65
2022/04/12 10:51:36;;;;;;;11.80;7.18;;;;;;;;;;4129029;34;20551;-64
2022/04/12 10:54:02;;;;;;;16.33;5.45;;;;;;;;;;4164263;34;20181;-67
2022/04/12 10:56:28;;;;;;;8.20;5.28;;;;;;;;;;4150653;34;20102;-67
2022/04/12 10:58:54;;;;;;;10.40;5.22;;;;;;;;;;4163986;34;20176;-63
2022/04/12 11:01:30;;;;;;;1.17;1.17;;;;;;;;;;4151401;34;20183;-62
2022/04/12 11:03:57;;;;;;;4.75;3.05;;;;;;;;;;4164199;34;20195;-64
2022/04/12 11:06:24;;;;;;;12.00;4.72;;;;;;;;;;4163899;34;20118;-62
2022/04/12 11:08:55;;;;;;;1.80;1.70;;;;;;;;;;4151398;34;20621;-63
2022/04/12 11:11:33;;;;;;;1.25;1.25;;;;;;;;;;4163808;34;20206;-64
2022/04/12 11:14:22;;;;;;;1.55;1.40;;;;;;;;;;4151423;34;20111;-63
2022/04/12 11:16:50;;;;;;;0.95;0.95;;;;;;;;;;4163958;34;20182;-65
2022/04/12 11:19:23;;;;;;;3.42;2.72;;;;;;;;;;4163820;34;20123;-66
2022/04/12 11:21:50;;;;;;;13.82;5.47;;;;;;;;;;4157057;34;20130;-63
2022/04/12 11:24:17;;;;;;;15.85;4.75;;;;;;;;;;4163491;34;20114;-62
2022/04/12 11:26:49;;;;;;;4.30;1.52;;;;;;;;;;4163587;34;20141;-65
2022/04/12 11:29:18;;;;;;;4.93;3.37;;;;;;;;;;4150938;34;20499;-66
2022/04/12 11:31:45;;;;;;;1.75;1.65;;;;;;;;;;4163521;34;20106;-67
2022/04/12 11:34:12;;;;;;;6.05;4.35;;;;;;;;;;4163955;34;20184;-68
2022/04/12 11:36:39;;;;;;;4.85;3.22;;;;;;;;;;4163349;34;20119;-67
2022/04/12 11:39:06;;;;;;;7.55;4.50;;;;;;;;;;4150805;34;20119;-67
2022/04/12 11:41:32;;;;;;;2.28;2.05;;;;;;;;;;4163335;34;20614;-67
2022/04/12 11:44:00;;;;;;;8.30;3.40;;;;;;;;;;4163575;34;20130;-67
2022/04/12 11:46:28;;;;;;;4.78;2.83;;;;;;;;;;4163343;34;20206;-66
2022/04/12 11:49:13;;;;;;;6.93;4.45;;;;;;;;;;4150979;34;20193;-67
2022/04/12 11:51:44;;;;;;;9.13;6.70;;;;;;;;;;4148777;34;20539;-65
2022/04/12 11:54:30;;;;;;;8.45;4.82;;;;;;;;;;4139143;34;20095;-66
2022/04/12 11:57:05;;;;;;;3.03;2.65;;;;;;;;;;4149576;34;20113;-65
2022/04/12 11:59:37;;;;;;;7.35;4.25;;;;;;;;;;4150003;34;20134;-65
2022/04/12 12:02:05;;;;;;;8.60;6.43;;;;;;;;;;4147745;34;20115;-66
2022/04/12 12:04:34;;;;;;;5.00;4.32;;;;;;;;;;4137028;34;20099;-64
2022/04/12 12:07:05;;;;;;;4.07;3.03;;;;;;;;;;4136639;34;20119;-65
2022/04/12 12:09:32;;;;;;;7.25;5.07;;;;;;;;;;4149888;34;20113;-65
2022/04/12 12:12:04;;;;;;;3.62;2.55;;;;;;;;;;4138711;34;20134;-63
2022/04/12 12:14:31;;;;;;;6.15;4.43;;;;;;;;;;4149733;34;20536;-63
2022/04/12 12:17:04;;;;;;;5.18;3.33;;;;;;;;;;4125579;34;20128;-64
2022/04/12 12:19:33;;;;;;;2.25;1.67;;;;;;;;;;4149715;34;20192;-66
2022/04/12 12:22:03;;;;;;;9.40;6.85;;;;;;;;;;4149471;34;20480;-65
2022/04/12 12:24:29;;;;;;;4.22;2.75;;;;;;;;;;4137410;34;20195;-63
2022/04/12 12:26:56;;;;;;;7.07;4.72;;;;;;;;;;4149543;34;20129;-61
2022/04/12 12:29:24;;;;;;;2.03;1.83;;;;;;;;;;4126080;34;20102;-63
2022/04/12 12:31:55;;;;;;;4.03;1.70;;;;;;;;;;4149896;34;20119;-63
2022/04/12 12:34:35;;;;;;;1.75;1.42;;;;;;;;;;4137190;34;20123;-63
2022/04/12 12:37:11;;;;;;;0.70;0.70;;;;;;;;;;4149517;34;20541;-62
2022/04/12 12:39:40;;;;;;;15.85;3.70;;;;;;;;;;4149636;34;20118;-63
2022/04/12 12:42:07;;;;;;;11.25;6.82;;;;;;;;;;4149407;34;20123;-64
2022/04/12 12:44:37;;;;;;;1.30;1.30;;;;;;;;;;4136982;34;20138;-64
2022/04/12 12:47:04;;;;;;;3.08;1.95;;;;;;;;;;4149410;34;20103;-66
2022/04/12 12:49:37;;;;;;;1.52;1.40;;;;;;;;;;4148145;34;20122;-67
2022/04/12 12:52:13;;;;;;;1.58;1.48;;;;;;;;;;4149264;34;20545;-68
2022/04/12 12:54:39;;;;;;;1.20;1.17;;;;;;;;;;4149516;34;20107;-66
2022/04/12 12:57:08;;;;;;;10.38;5.45;;;;;;;;;;4147892;34;20126;-66
2022/04/12 12:59:35;;;;;;;5.07;3.30;;;;;;;;;;4137074;34;20134;-66
2022/04/12 13:02:09;;;;;;;6.35;5.15;;;;;;;;;;4136555;34;20566;-64
2022/04/12 13:04:41;;;;;;;5.93;3.55;;;;;;;;;;4149388;34;20445;-65
2022/04/12 13:07:09;;;;;;;10.70;5.37;;;;;;;;;;4149185;34;20099;-66
2022/04/12 13:09:43;;;;;;;5.97;3.83;;;;;;;;;;4149380;34;20106;-66
2022/04/12 13:12:10;;;;;;;7.95;4.47;;;;;;;;;;4157681;34;20189;-67
2022/04/12 13:14:37;;;;;;;1.65;1.55;;;;;;;;;;4162886;34;20843;-67
2022/04/12 13:17:04;;;;;;;4.07;2.72;;;;;;;;;;4162568;34;20511;-67
2022/04/12 13:19:32;;;;;;;3.33;2.05;;;;;;;;;;4164167;34;20479;-66
2022/04/12 13:21:59;;;;;;;1.75;1.50;;;;;;;;;;4163098;34;20099;-65
2022/04/12 13:24:28;;;;;;;2.47;2.00;;;;;;;;;;4164802;34;20133;-65
2022/04/12 13:26:56;;;;;;;2.80;2.05;;;;;;;;;;4164650;34;20107;-67
2022/04/12 13:29:23;;;;;;;11.38;3.95;;;;;;;;;;4152225;34;20458;-66
2022/04/12 13:31:49;;;;;;;1.33;1.33;;;;;;;;;;4163409;34;20091;-65
2022/04/12 13:34:15;;;;;;;6.03;4.85;;;;;;;;;;4164820;34;20552;-65
2022/04/12 13:36:42;;;;;;;3.58;2.95;;;;;;;;;;4151960;34;20102;-66
2022/04/12 13:39:08;;;;;;;9.50;5.35;;;;;;;;;;4164913;34;20114;-65
2022/04/12 13:41:38;;;;;;;1.45;1.35;;;;;;;;;;4163239;34;20123;-65
2022/04/12 13:44:05;;;;;;;6.85;4.30;;;;;;;;;;4164659;34;20131;-74
2022/04/12 13:46:31;;;;;;;8.45;5.15;;;;;;;;;;4151192;34;20508;-73
2022/04/12 13:48:57;;;;;;;10.45;5.72;;;;;;;;;;4164930;34;20117;-72
2022/04/12 13:51:23;;;;;;;11.35;5.32;;;;;;;;;;4152127;34;20544;-64
2022/04/12 13:53:49;;;;;;;8.20;3.95;;;;;;;;;;4151860;34;20130;-64
2022/04/12 13:56:15;;;;;;;6.82;1.87;;;;;;;;;;4151946;34;20107;-68
2022/04/12 13:58:42;;;;;;;0.90;0.90;;;;;;;;;;4151704;34;20121;-68
2022/04/12 14:01:08;;;;;;;2.17;1.92;;;;;;;;;;4152125;34;20117;-70
2022/04/12 14:03:34;;;;;;;4.95;1.70;;;;;;;;;;4151791;34;20119;-69
2022/04/12 14:06:01;;;;;;;1.98;1.73;;;;;;;;;;4164601;34;20107;-70
2022/04/12 14:08:32;;;;;;;1.73;1.62;;;;;;;;;;4151610;34;20500;-69
2022/04/12 14:10:59;;;;;;;1.70;1.60;;;;;;;;;;4140690;34;20103;-67
2022/04/12 14:13:25;;;;;;;6.40;3.37;;;;;;;;;;4151671;34;20109;-68
2022/04/12 14:15:52;;;;;;;6.07;3.70;;;;;;;;;;4139622;34;20105;-65
2022/04/12 14:18:20;;;;;;;1.35;1.25;;;;;;;;;;4164383;34;20125;-63
2022/04/12 14:20:47;;;;;;;2.45;2.17;;;;;;;;;;4140323;34;20127;-64
2022/04/12 14:23:13;;;;;;;1.52;1.42;;;;;;;;;;4140712;34;20115;-67
2022/04/12 14:25:39;;;;;;;1.70;1.48;;;;;;;;;;4164082;34;20118;-67
2022/04/12 14:28:10;;;;;;;11.60;1.37;;;;;;;;;;4151498;34;20627;-69
2022/04/12 14:30:37;;;;;;;15.98;2.35;;;;;;;;;;4163567;34;20198;-70
2022/04/12 14:33:04;;;;;;;4.72;1.80;;;;;;;;;;4164062;34;20203;-67
2022/04/12 14:35:31;;;;;;;1.40;1.30;;;;;;;;;;4164387;34;20126;-68
2022/04/12 14:37:57;;;;;;;1.90;1.70;;;;;;;;;;4140378;34;20122;-68
2022/04/12 14:40:23;;;;;;;1.50;1.40;;;;;;;;;;4163943;34;20103;-68
2022/04/12 14:42:49;;;;;;;3.58;2.70;;;;;;;;;;4164047;34;20110;-68
2022/04/12 14:45:15;;;;;;;1.60;1.45;;;;;;;;;;4151579;34;20115;-67
2022/04/12 14:47:41;;;;;;;2.83;2.08;;;;;;;;;;4163872;34;20090;-66
2022/04/12 14:50:08;;;;;;;8.95;4.50;;;;;;;;;;4164324;34;20109;-64
2022/04/12 14:52:34;;;;;;;10.70;3.75;;;;;;;;;;4139782;34;20563;-65
2022/04/12 14:55:00;;;;;;;1.17;1.10;;;;;;;;;;4164096;34;20122;-64
2022/04/12 14:57:27;;;;;;;2.22;2.03;;;;;;;;;;4163911;34;20098;-65
2022/04/12 14:59:56;;;;;;;1.60;1.50;;;;;;;;;;4162926;34;20445;-68
2022/04/12 15:02:22;;;;;;;2.10;1.85;;;;;;;;;;4161722;34;20122;-70
2022/04/12 15:04:50;;;;;;;0.80;0.80;;;;;;;;;;4151239;34;20138;-75